Time;durP1;ratioP1;P1;durP2;ratioP2;P2;SDS_P1;SDS_P2;PMS_P1;PMS_P2;Temp;Humidity;BMP_temperature;BMP_pressure;BME280_temperature;BME280_humidity;BME280_pressure;Samples;Min_cycle;Max_cycle;Signal;HPM_P1;HPM_P2
2021/07/19 00:00:14;;;;;;;31.75;15.52;;;;;;;;;;1484733;40;20385;-59
2021/07/19 00:01:16;;;;;;;23.88;14.35;;;;;;;;;;1484435;40;20037;-58
2021/07/19 00:02:19;;;;;;;33.28;16.33;;;;;;;;;;1484355;40;20025;-58
2021/07/19 00:03:20;;;;;;;29.25;15.68;;;;;;;;;;1484504;40;20021;-59
2021/07/19 00:04:22;;;;;;;30.40;16.08;;;;;;;;;;1484033;40;20029;-61
2021/07/19 00:05:25;;;;;;;27.42;15.20;;;;;;;;;;1484075;40;20031;-58
2021/07/19 00:06:28;;;;;;;25.30;14.43;;;;;;;;;;1484819;40;20047;-58
2021/07/19 00:07:28;;;;;;;26.80;14.73;;;;;;;;;;1484611;40;20028;-59
2021/07/19 00:08:30;;;;;;;31.95;14.82;;;;;;;;;;1484649;40;20292;-59
2021/07/19 00:09:31;;;;;;;25.80;14.77;;;;;;;;;;1484485;40;20103;-58
2021/07/19 00:10:33;;;;;;;28.98;14.52;;;;;;;;;;1484706;40;20032;-58
2021/07/19 00:11:34;;;;;;;25.13;14.73;;;;;;;;;;1484617;40;20029;-58
2021/07/19 00:12:37;;;;;;;24.73;15.05;;;;;;;;;;1484783;40;20369;-59
2021/07/19 00:13:38;;;;;;;32.67;14.73;;;;;;;;;;1484492;40;20052;-59
2021/07/19 00:14:40;;;;;;;29.25;14.77;;;;;;;;;;1484456;40;20392;-58
2021/07/19 00:15:41;;;;;;;30.77;14.75;;;;;;;;;;1484472;40;20032;-59
2021/07/19 00:16:43;;;;;;;28.75;14.18;;;;;;;;;;1484620;40;20029;-58
2021/07/19 00:17:46;;;;;;;25.67;14.75;;;;;;;;;;1484598;40;20035;-58
2021/07/19 00:18:48;;;;;;;29.60;14.80;;;;;;;;;;1484741;40;20028;-58
2021/07/19 00:19:50;;;;;;;25.40;14.43;;;;;;;;;;1484575;40;20035;-58
2021/07/19 00:20:52;;;;;;;28.13;14.50;;;;;;;;;;1483989;40;20060;-60
2021/07/19 00:21:53;;;;;;;29.83;14.73;;;;;;;;;;1484043;40;20028;-58
2021/07/19 00:22:55;;;;;;;28.60;15.43;;;;;;;;;;1484651;40;20396;-60
2021/07/19 00:23:56;;;;;;;27.92;14.20;;;;;;;;;;1484665;40;20028;-58
2021/07/19 00:24:58;;;;;;;26.13;15.02;;;;;;;;;;1484682;40;20373;-58
2021/07/19 00:25:58;;;;;;;29.63;15.73;;;;;;;;;;1484436;40;20021;-58
2021/07/19 00:27:00;;;;;;;24.85;14.90;;;;;;;;;;1484701;40;20024;-58
2021/07/19 00:28:03;;;;;;;25.45;14.32;;;;;;;;;;1484431;40;20396;-59
2021/07/19 00:29:04;;;;;;;26.20;14.32;;;;;;;;;;1484492;40;20029;-58
2021/07/19 00:30:09;;;;;;;24.58;13.63;;;;;;;;;;1484469;40;20025;-58
2021/07/19 00:31:11;;;;;;;29.92;14.85;;;;;;;;;;1484626;40;20032;-59
2021/07/19 00:32:12;;;;;;;32.40;15.07;;;;;;;;;;1484517;40;20021;-58
2021/07/19 00:33:16;;;;;;;29.15;14.57;;;;;;;;;;1484683;40;20032;-58
2021/07/19 00:34:16;;;;;;;28.40;15.32;;;;;;;;;;1484437;40;20032;-58
2021/07/19 00:35:19;;;;;;;29.33;14.93;;;;;;;;;;1484570;40;20025;-58
2021/07/19 00:36:19;;;;;;;23.95;14.30;;;;;;;;;;1484569;40;20044;-58
2021/07/19 00:37:24;;;;;;;28.42;14.48;;;;;;;;;;1484422;40;20300;-59
2021/07/19 00:38:25;;;;;;;26.55;14.30;;;;;;;;;;1484624;40;20029;-58
2021/07/19 00:39:28;;;;;;;26.52;13.50;;;;;;;;;;1484571;40;20304;-58
2021/07/19 00:40:31;;;;;;;30.58;14.32;;;;;;;;;;1484654;40;20065;-58
2021/07/19 00:41:33;;;;;;;31.08;14.60;;;;;;;;;;1484506;40;20028;-58
2021/07/19 00:42:36;;;;;;;26.40;13.77;;;;;;;;;;1484379;40;20025;-58
2021/07/19 00:43:51;;;;;;;28.30;14.23;;;;;;;;;;1484555;40;20032;-59
2021/07/19 00:44:51;;;;;;;23.45;14.07;;;;;;;;;;1484423;40;20029;-59
2021/07/19 00:45:53;;;;;;;27.90;14.63;;;;;;;;;;1484434;40;20021;-58
2021/07/19 00:46:55;;;;;;;27.13;13.93;;;;;;;;;;1484433;40;20021;-58
2021/07/19 00:47:59;;;;;;;29.52;15.15;;;;;;;;;;1484707;40;20102;-58
2021/07/19 00:49:01;;;;;;;26.08;14.70;;;;;;;;;;1484348;40;20029;-59
2021/07/19 00:50:04;;;;;;;23.95;13.05;;;;;;;;;;1484542;40;20106;-59
2021/07/19 00:51:05;;;;;;;25.67;14.00;;;;;;;;;;1484444;40;20029;-58
2021/07/19 00:52:07;;;;;;;27.70;14.48;;;;;;;;;;1484613;40;20029;-58
2021/07/19 00:53:09;;;;;;;29.05;14.60;;;;;;;;;;1484510;40;20025;-58
2021/07/19 00:54:12;;;;;;;28.55;14.68;;;;;;;;;;1484297;40;20109;-58
2021/07/19 00:55:14;;;;;;;28.98;14.48;;;;;;;;;;1484440;40;20288;-58
2021/07/19 00:56:18;;;;;;;27.67;14.77;;;;;;;;;;1484385;40;20033;-58
2021/07/19 00:57:21;;;;;;;27.17;14.00;;;;;;;;;;1484536;40;20028;-59
2021/07/19 00:58:28;;;;;;;26.85;13.82;;;;;;;;;;1484413;40;20076;-59
2021/07/19 00:59:31;;;;;;;29.95;14.38;;;;;;;;;;1484353;40;20025;-58
2021/07/19 01:00:35;;;;;;;26.95;14.32;;;;;;;;;;1484393;40;20359;-57
2021/07/19 01:01:38;;;;;;;23.60;13.48;;;;;;;;;;1484449;40;20028;-58
2021/07/19 01:02:43;;;;;;;23.40;14.00;;;;;;;;;;1484380;40;20024;-59
2021/07/19 01:03:46;;;;;;;25.02;13.88;;;;;;;;;;1484420;40;20020;-58
2021/07/19 01:04:51;;;;;;;23.67;13.35;;;;;;;;;;1484460;40;20367;-58
2021/07/19 01:05:54;;;;;;;27.45;14.00;;;;;;;;;;1484376;40;20025;-59
2021/07/19 01:07:01;;;;;;;29.27;14.05;;;;;;;;;;1484426;40;20021;-59
2021/07/19 01:08:03;;;;;;;26.42;13.70;;;;;;;;;;1484427;40;20032;-59
2021/07/19 01:09:06;;;;;;;23.85;13.25;;;;;;;;;;1484372;40;20021;-58
2021/07/19 01:10:13;;;;;;;24.75;13.18;;;;;;;;;;1484406;40;20043;-58
2021/07/19 01:11:15;;;;;;;23.98;12.10;;;;;;;;;;1484515;40;20037;-58
2021/07/19 01:12:18;;;;;;;24.05;12.40;;;;;;;;;;1484303;40;20017;-58
2021/07/19 01:13:20;;;;;;;27.05;13.52;;;;;;;;;;1484403;40;20029;-58
2021/07/19 01:14:21;;;;;;;25.08;13.18;;;;;;;;;;1484293;40;20388;-59
2021/07/19 01:15:24;;;;;;;27.02;13.77;;;;;;;;;;1485261;40;20099;-58
2021/07/19 01:16:25;;;;;;;27.02;13.02;;;;;;;;;;1484925;40;20017;-58
2021/07/19 01:17:27;;;;;;;26.30;14.23;;;;;;;;;;1485235;40;20028;-58
2021/07/19 01:18:28;;;;;;;29.27;14.15;;;;;;;;;;1485096;40;20025;-58
2021/07/19 01:19:33;;;;;;;25.23;14.23;;;;;;;;;;1485078;40;20029;-58
2021/07/19 01:20:50;;;;;;;27.90;14.43;;;;;;;;;;1485014;40;20017;-58
2021/07/19 01:22:16;;;;;;;28.55;14.20;;;;;;;;;;1484461;40;20032;-58
2021/07/19 01:23:34;;;;;;;27.27;14.00;;;;;;;;;;1484669;40;20033;-58
2021/07/19 01:24:46;;;;;;;27.33;14.13;;;;;;;;;;1484893;40;20025;-58
2021/07/19 01:26:02;;;;;;;23.45;12.80;;;;;;;;;;1485178;40;20037;-58
2021/07/19 01:27:32;;;;;;;24.52;13.80;;;;;;;;;;1484910;40;20032;-58
2021/07/19 01:28:42;;;;;;;26.92;14.13;;;;;;;;;;1485217;40;20029;-58
2021/07/19 01:29:44;;;;;;;26.83;13.27;;;;;;;;;;1484942;40;20122;-58
2021/07/19 01:30:47;;;;;;;25.27;13.10;;;;;;;;;;1484997;40;20409;-58
2021/07/19 01:31:49;;;;;;;27.20;13.15;;;;;;;;;;1484875;40;20017;-58
2021/07/19 01:32:52;;;;;;;26.23;13.27;;;;;;;;;;1485068;40;20296;-59
2021/07/19 01:33:58;;;;;;;27.83;14.35;;;;;;;;;;1485233;40;20025;-59
2021/07/19 01:35:00;;;;;;;24.15;13.18;;;;;;;;;;1484962;40;20130;-59
2021/07/19 01:36:02;;;;;;;24.75;12.95;;;;;;;;;;1484895;40;20032;-58
2021/07/19 01:37:06;;;;;;;27.48;14.73;;;;;;;;;;1485105;40;20025;-58
2021/07/19 01:38:09;;;;;;;23.95;12.93;;;;;;;;;;1485019;40;20020;-59
2021/07/19 01:39:11;;;;;;;24.27;13.30;;;;;;;;;;1485040;40;20025;-58
2021/07/19 01:40:13;;;;;;;28.70;13.93;;;;;;;;;;1484884;40;20316;-58
2021/07/19 01:41:17;;;;;;;23.58;13.05;;;;;;;;;;1484826;40;20036;-58
2021/07/19 01:42:18;;;;;;;23.52;12.98;;;;;;;;;;1484901;40;20021;-58
2021/07/19 01:43:21;;;;;;;24.98;12.77;;;;;;;;;;1485019;40;20036;-58
2021/07/19 01:44:24;;;;;;;28.05;13.65;;;;;;;;;;1484945;40;20403;-58
2021/07/19 01:45:27;;;;;;;28.65;13.50;;;;;;;;;;1484991;40;20017;-58
2021/07/19 01:46:32;;;;;;;24.73;12.82;;;;;;;;;;1485066;40;20297;-59
2021/07/19 01:47:35;;;;;;;30.63;14.32;;;;;;;;;;1485008;40;20029;-62
2021/07/19 01:48:36;;;;;;;24.83;13.20;;;;;;;;;;1485018;40;20031;-62
2021/07/19 01:49:39;;;;;;;32.33;13.88;;;;;;;;;;1484791;40;20029;-62
2021/07/19 01:50:41;;;;;;;25.40;13.20;;;;;;;;;;1484869;40;20292;-62
2021/07/19 01:51:43;;;;;;;26.00;13.75;;;;;;;;;;1484984;40;20036;-62
2021/07/19 01:52:44;;;;;;;27.25;13.90;;;;;;;;;;1484782;40;20021;-62
2021/07/19 01:53:47;;;;;;;26.45;13.88;;;;;;;;;;1484976;40;20262;-62
2021/07/19 01:54:48;;;;;;;29.45;14.15;;;;;;;;;;1484807;40;20025;-63
2021/07/19 01:55:50;;;;;;;27.65;13.30;;;;;;;;;;1485168;40;20095;-62
2021/07/19 01:56:53;;;;;;;26.17;13.27;;;;;;;;;;1484934;40;20023;-62
2021/07/19 01:57:54;;;;;;;23.30;12.82;;;;;;;;;;1485189;40;20017;-62
2021/07/19 01:58:57;;;;;;;23.83;12.63;;;;;;;;;;1484248;40;20328;-62
2021/07/19 02:00:02;;;;;;;23.48;12.40;;;;;;;;;;1484394;40;20091;-62
2021/07/19 02:01:05;;;;;;;25.35;12.82;;;;;;;;;;1484784;40;20025;-62
2021/07/19 02:02:10;;;;;;;24.63;12.38;;;;;;;;;;1484952;40;20102;-62
2021/07/19 02:03:11;;;;;;;23.48;12.57;;;;;;;;;;1484886;40;20035;-62
2021/07/19 02:04:13;;;;;;;23.92;12.23;;;;;;;;;;1485069;40;20388;-62
2021/07/19 02:05:17;;;;;;;22.10;12.85;;;;;;;;;;1484867;40;20025;-62
2021/07/19 02:06:20;;;;;;;25.67;13.38;;;;;;;;;;1484982;40;20385;-62
2021/07/19 02:07:24;;;;;;;31.27;13.30;;;;;;;;;;1484916;40;20414;-62
2021/07/19 02:08:27;;;;;;;28.55;13.80;;;;;;;;;;1485117;40;20032;-62
2021/07/19 02:09:28;;;;;;;27.88;13.57;;;;;;;;;;1484803;40;20024;-62
2021/07/19 02:10:31;;;;;;;24.08;13.85;;;;;;;;;;1485026;40;20024;-62
2021/07/19 02:11:33;;;;;;;22.27;13.05;;;;;;;;;;1484942;40;20061;-62
2021/07/19 02:12:37;;;;;;;23.95;13.65;;;;;;;;;;1485042;40;20117;-63
2021/07/19 02:13:42;;;;;;;23.95;13.20;;;;;;;;;;1484919;40;20032;-62
2021/07/19 02:14:46;;;;;;;27.60;13.23;;;;;;;;;;1485059;40;20029;-63
2021/07/19 02:15:52;;;;;;;25.10;12.50;;;;;;;;;;1485214;40;20038;-62
2021/07/19 02:16:55;;;;;;;29.45;13.68;;;;;;;;;;1484844;40;20025;-62
2021/07/19 02:17:58;;;;;;;23.92;12.95;;;;;;;;;;1484833;40;20031;-62
2021/07/19 02:19:01;;;;;;;22.70;13.15;;;;;;;;;;1484893;40;20025;-62
2021/07/19 02:20:06;;;;;;;22.42;13.05;;;;;;;;;;1484888;40;20027;-62
2021/07/19 02:21:09;;;;;;;25.10;13.45;;;;;;;;;;1484969;40;20277;-62
2021/07/19 02:22:11;;;;;;;22.10;13.52;;;;;;;;;;1484894;40;20025;-63
2021/07/19 02:23:15;;;;;;;25.23;13.18;;;;;;;;;;1484960;40;20056;-63
2021/07/19 02:24:17;;;;;;;22.67;12.75;;;;;;;;;;1484691;40;20025;-62
2021/07/19 02:25:20;;;;;;;29.20;13.85;;;;;;;;;;1484865;40;20082;-62
2021/07/19 02:26:23;;;;;;;23.20;12.88;;;;;;;;;;1484333;40;20024;-61
2021/07/19 02:27:25;;;;;;;25.02;13.02;;;;;;;;;;1484950;40;20280;-62
2021/07/19 02:28:26;;;;;;;24.23;13.65;;;;;;;;;;1484767;40;20056;-63
2021/07/19 02:29:29;;;;;;;26.15;13.25;;;;;;;;;;1484915;40;20025;-62
2021/07/19 02:30:31;;;;;;;24.83;13.75;;;;;;;;;;1484877;40;20027;-62
2021/07/19 02:31:34;;;;;;;25.55;13.52;;;;;;;;;;1484863;40;20057;-62
2021/07/19 02:32:37;;;;;;;24.70;13.13;;;;;;;;;;1484817;40;20032;-62
2021/07/19 02:33:40;;;;;;;22.23;12.77;;;;;;;;;;1485057;40;20082;-61
2021/07/19 02:34:41;;;;;;;28.13;13.30;;;;;;;;;;1484758;40;20031;-62
2021/07/19 02:35:43;;;;;;;25.75;13.50;;;;;;;;;;1484867;40;20028;-62
2021/07/19 02:36:45;;;;;;;28.98;13.98;;;;;;;;;;1484780;40;20056;-62
2021/07/19 02:37:51;;;;;;;25.65;13.57;;;;;;;;;;1484702;40;20028;-62
2021/07/19 02:38:55;;;;;;;27.75;13.60;;;;;;;;;;1484926;40;20021;-62
2021/07/19 02:39:56;;;;;;;26.25;13.30;;;;;;;;;;1484885;40;20320;-62
2021/07/19 02:40:59;;;;;;;25.58;13.13;;;;;;;;;;1484700;40;20036;-61
2021/07/19 02:42:02;;;;;;;28.33;13.63;;;;;;;;;;1484802;40;20037;-62
2021/07/19 02:43:06;;;;;;;24.00;13.20;;;;;;;;;;1484683;40;20051;-63
2021/07/19 02:44:08;;;;;;;28.65;14.05;;;;;;;;;;1484744;40;20021;-62
2021/07/19 02:45:14;;;;;;;29.13;15.35;;;;;;;;;;1484622;40;20036;-61
2021/07/19 02:46:18;;;;;;;27.23;14.55;;;;;;;;;;1484994;40;20122;-62
2021/07/19 02:47:20;;;;;;;29.83;14.13;;;;;;;;;;1484904;40;20031;-62
2021/07/19 02:48:25;;;;;;;25.52;13.38;;;;;;;;;;1484917;40;20023;-63
2021/07/19 02:49:27;;;;;;;24.27;13.18;;;;;;;;;;1484791;40;20032;-62
2021/07/19 02:50:30;;;;;;;29.52;13.15;;;;;;;;;;1484929;40;20031;-63
2021/07/19 02:51:31;;;;;;;23.33;13.55;;;;;;;;;;1484835;40;20389;-61
2021/07/19 02:52:34;;;;;;;23.70;13.25;;;;;;;;;;1485121;40;20021;-62
2021/07/19 02:53:36;;;;;;;23.30;13.77;;;;;;;;;;1484805;40;20024;-62
2021/07/19 02:54:40;;;;;;;27.38;13.48;;;;;;;;;;1484675;40;20032;-63
2021/07/19 02:55:43;;;;;;;21.55;13.48;;;;;;;;;;1484860;40;20024;-62
2021/07/19 02:56:46;;;;;;;22.65;13.48;;;;;;;;;;1484888;40;20029;-63
2021/07/19 02:57:48;;;;;;;25.63;13.77;;;;;;;;;;1484701;40;20392;-62
2021/07/19 02:58:50;;;;;;;25.65;13.70;;;;;;;;;;1484858;40;20031;-62
2021/07/19 02:59:51;;;;;;;28.20;15.15;;;;;;;;;;1484697;40;20021;-62
2021/07/19 03:00:54;;;;;;;25.70;14.18;;;;;;;;;;1484790;40;20042;-61
2021/07/19 03:01:55;;;;;;;35.15;15.35;;;;;;;;;;1484696;40;20385;-62
2021/07/19 03:03:03;;;;;;;26.55;14.07;;;;;;;;;;1484832;40;20029;-62
2021/07/19 03:04:05;;;;;;;25.90;13.98;;;;;;;;;;1484953;40;20021;-62
2021/07/19 03:05:10;;;;;;;30.55;14.80;;;;;;;;;;1484773;40;20032;-62
2021/07/19 03:06:16;;;;;;;29.88;14.23;;;;;;;;;;1484643;40;20032;-62
2021/07/19 03:07:21;;;;;;;27.27;14.93;;;;;;;;;;1484951;40;20025;-62
2021/07/19 03:08:23;;;;;;;29.35;14.60;;;;;;;;;;1484610;40;20025;-62
2021/07/19 03:09:28;;;;;;;25.90;14.65;;;;;;;;;;1484888;40;20281;-62
2021/07/19 03:10:31;;;;;;;28.35;14.32;;;;;;;;;;1484723;40;20031;-62
2021/07/19 03:11:37;;;;;;;31.88;14.88;;;;;;;;;;1484773;40;20025;-63
2021/07/19 03:12:40;;;;;;;30.30;15.50;;;;;;;;;;1484715;40;20025;-62
2021/07/19 03:13:44;;;;;;;28.30;14.75;;;;;;;;;;1484801;40;20113;-62
2021/07/19 03:14:48;;;;;;;28.55;15.02;;;;;;;;;;1484715;40;20029;-62
2021/07/19 03:15:51;;;;;;;34.60;15.48;;;;;;;;;;1484778;40;20035;-62
2021/07/19 03:16:55;;;;;;;26.17;13.93;;;;;;;;;;1484702;40;20024;-62
2021/07/19 03:17:59;;;;;;;28.38;15.68;;;;;;;;;;1484892;40;20035;-62
2021/07/19 03:19:03;;;;;;;26.20;15.25;;;;;;;;;;1484804;40;20028;-62
2021/07/19 03:20:07;;;;;;;28.48;15.20;;;;;;;;;;1484754;40;20416;-62
2021/07/19 03:21:09;;;;;;;26.55;14.15;;;;;;;;;;1484663;40;20047;-62
2021/07/19 03:22:11;;;;;;;25.65;15.32;;;;;;;;;;1484603;40;20025;-62
2021/07/19 03:23:14;;;;;;;27.65;15.00;;;;;;;;;;1484703;40;20394;-62
2021/07/19 03:24:18;;;;;;;26.75;15.18;;;;;;;;;;1484816;40;20029;-62
2021/07/19 03:25:23;;;;;;;26.00;14.40;;;;;;;;;;1484613;40;20032;-62
2021/07/19 03:26:26;;;;;;;27.52;14.80;;;;;;;;;;1484751;40;20032;-63
2021/07/19 03:27:28;;;;;;;27.55;15.80;;;;;;;;;;1484694;40;20025;-62
2021/07/19 03:28:30;;;;;;;27.73;15.57;;;;;;;;;;1484707;40;20017;-62
2021/07/19 03:29:33;;;;;;;30.23;14.43;;;;;;;;;;1484575;40;20296;-61
2021/07/19 03:30:35;;;;;;;26.55;14.65;;;;;;;;;;1484723;40;20057;-62
2021/07/19 03:31:37;;;;;;;31.45;15.32;;;;;;;;;;1484634;40;20021;-62
2021/07/19 03:32:39;;;;;;;25.17;14.50;;;;;;;;;;1484606;40;20288;-62
2021/07/19 03:33:43;;;;;;;25.05;13.63;;;;;;;;;;1484597;40;20027;-62
2021/07/19 03:34:45;;;;;;;27.75;13.98;;;;;;;;;;1484675;40;20024;-62
2021/07/19 03:35:46;;;;;;;27.40;13.80;;;;;;;;;;1484660;40;20036;-62
2021/07/19 03:36:52;;;;;;;26.25;14.10;;;;;;;;;;1484709;40;20075;-63
2021/07/19 03:37:54;;;;;;;27.23;14.82;;;;;;;;;;1484413;40;20025;-62
2021/07/19 03:38:56;;;;;;;29.13;14.75;;;;;;;;;;1484674;40;20074;-61
2021/07/19 03:39:58;;;;;;;29.15;14.82;;;;;;;;;;1484761;40;20025;-62
2021/07/19 03:41:01;;;;;;;27.77;14.15;;;;;;;;;;1484880;40;20025;-62
2021/07/19 03:42:02;;;;;;;28.98;14.10;;;;;;;;;;1484530;40;20025;-62
2021/07/19 03:43:05;;;;;;;26.98;14.07;;;;;;;;;;1484726;40;20025;-62
2021/07/19 03:44:08;;;;;;;28.52;14.07;;;;;;;;;;1484630;40;20029;-62
2021/07/19 03:45:12;;;;;;;28.98;14.02;;;;;;;;;;1484703;40;20032;-62
2021/07/19 03:46:13;;;;;;;26.90;13.93;;;;;;;;;;1484575;40;20266;-62
2021/07/19 03:47:15;;;;;;;28.23;14.82;;;;;;;;;;1484722;40;20025;-62
2021/07/19 03:48:17;;;;;;;29.23;14.73;;;;;;;;;;1484495;40;20016;-61
2021/07/19 03:49:21;;;;;;;25.15;14.10;;;;;;;;;;1484603;40;20029;-62
2021/07/19 03:50:22;;;;;;;27.77;14.30;;;;;;;;;;1484657;40;20333;-63
2021/07/19 03:51:28;;;;;;;27.58;14.25;;;;;;;;;;1484762;40;20037;-61
2021/07/19 03:52:29;;;;;;;26.20;14.38;;;;;;;;;;1484558;40;20032;-62
2021/07/19 03:53:32;;;;;;;37.92;15.15;;;;;;;;;;1484589;40;20021;-62
2021/07/19 03:54:33;;;;;;;24.92;13.85;;;;;;;;;;1484524;40;20330;-62
2021/07/19 03:55:35;;;;;;;28.52;14.60;;;;;;;;;;1483927;40;20025;-62
2021/07/19 03:56:37;;;;;;;29.60;13.52;;;;;;;;;;1484217;40;20035;-62
2021/07/19 03:57:40;;;;;;;25.08;14.02;;;;;;;;;;1484761;40;20296;-61
2021/07/19 03:58:41;;;;;;;39.17;15.23;;;;;;;;;;1484630;40;20024;-62
2021/07/19 03:59:43;;;;;;;33.08;15.50;;;;;;;;;;1484751;40;20037;-62
2021/07/19 04:00:44;;;;;;;31.35;15.88;;;;;;;;;;1484587;40;20032;-61
2021/07/19 04:01:48;;;;;;;30.30;15.82;;;;;;;;;;1484560;40;20017;-63
2021/07/19 04:02:51;;;;;;;26.00;14.27;;;;;;;;;;1484583;40;20294;-62
2021/07/19 04:03:54;;;;;;;29.00;14.55;;;;;;;;;;1484802;40;20029;-62
2021/07/19 04:05:04;;;;;;;30.20;14.70;;;;;;;;;;1484562;40;20076;-62
2021/07/19 04:06:11;;;;;;;26.48;14.40;;;;;;;;;;1484743;40;20033;-61
2021/07/19 04:07:14;;;;;;;30.45;14.50;;;;;;;;;;1484539;40;20032;-62
2021/07/19 04:08:16;;;;;;;24.65;13.93;;;;;;;;;;1484836;40;20079;-62
2021/07/19 04:09:18;;;;;;;24.63;14.43;;;;;;;;;;1484497;40;20025;-62
2021/07/19 04:10:21;;;;;;;31.38;15.75;;;;;;;;;;1484626;40;20313;-63
2021/07/19 04:11:22;;;;;;;30.42;16.27;;;;;;;;;;1484563;40;20043;-61
2021/07/19 04:12:25;;;;;;;29.45;15.68;;;;;;;;;;1484779;40;20121;-62
2021/07/19 04:13:26;;;;;;;31.58;16.55;;;;;;;;;;1484473;40;20025;-62
2021/07/19 04:14:28;;;;;;;29.85;15.13;;;;;;;;;;1484684;40;20029;-62
2021/07/19 04:15:30;;;;;;;33.05;15.95;;;;;;;;;;1484425;40;20027;-61
2021/07/19 04:16:32;;;;;;;30.27;15.15;;;;;;;;;;1484696;40;20261;-63
2021/07/19 04:17:33;;;;;;;37.25;16.70;;;;;;;;;;1484560;40;20021;-63
2021/07/19 04:18:35;;;;;;;26.70;14.90;;;;;;;;;;1484625;40;20400;-62
2021/07/19 04:19:36;;;;;;;30.13;14.75;;;;;;;;;;1484607;40;20025;-62
2021/07/19 04:20:41;;;;;;;30.70;15.52;;;;;;;;;;1484593;40;20031;-62
2021/07/19 04:21:42;;;;;;;29.50;14.88;;;;;;;;;;1484538;40;20028;-62
2021/07/19 04:22:45;;;;;;;29.90;15.23;;;;;;;;;;1484496;40;20031;-62
2021/07/19 04:23:46;;;;;;;28.52;14.52;;;;;;;;;;1484537;40;20025;-63
2021/07/19 04:24:48;;;;;;;28.40;15.07;;;;;;;;;;1484518;40;20025;-63
2021/07/19 04:25:49;;;;;;;29.83;15.93;;;;;;;;;;1484556;40;20035;-61
2021/07/19 04:26:52;;;;;;;28.35;14.18;;;;;;;;;;1484744;40;20024;-63
2021/07/19 04:27:54;;;;;;;28.80;15.05;;;;;;;;;;1484422;40;20036;-62
2021/07/19 04:28:56;;;;;;;31.27;13.27;;;;;;;;;;1484567;40;20032;-62
2021/07/19 04:29:56;;;;;;;30.27;14.90;;;;;;;;;;1484486;40;20028;-62
2021/07/19 04:31:01;;;;;;;32.20;14.95;;;;;;;;;;1484491;40;20028;-62
2021/07/19 04:32:02;;;;;;;30.83;14.15;;;;;;;;;;1484477;40;20021;-62
2021/07/19 04:33:05;;;;;;;30.05;14.75;;;;;;;;;;1484632;40;20405;-63
2021/07/19 04:34:05;;;;;;;30.55;14.93;;;;;;;;;;1484471;40;20025;-62
2021/07/19 04:35:13;;;;;;;29.42;14.63;;;;;;;;;;1484554;40;20325;-61
2021/07/19 04:36:17;;;;;;;30.52;14.93;;;;;;;;;;1484439;40;20037;-62
2021/07/19 04:37:19;;;;;;;32.42;15.45;;;;;;;;;;1484655;40;20025;-63
2021/07/19 04:38:21;;;;;;;35.97;15.77;;;;;;;;;;1484407;40;20025;-62
2021/07/19 04:39:23;;;;;;;36.38;16.35;;;;;;;;;;1484541;40;20052;-62
2021/07/19 04:40:25;;;;;;;36.70;16.23;;;;;;;;;;1484473;40;20385;-62
2021/07/19 04:41:27;;;;;;;28.30;14.45;;;;;;;;;;1484617;40;20040;-62
2021/07/19 04:42:28;;;;;;;29.38;14.73;;;;;;;;;;1484389;40;20028;-62
2021/07/19 04:43:30;;;;;;;27.25;14.27;;;;;;;;;;1484734;40;20280;-61
2021/07/19 04:44:33;;;;;;;26.95;14.65;;;;;;;;;;1484395;40;20421;-62
2021/07/19 04:45:36;;;;;;;27.90;14.48;;;;;;;;;;1483940;40;20051;-62
2021/07/19 04:46:36;;;;;;;29.15;14.90;;;;;;;;;;1483952;40;20033;-62
2021/07/19 04:47:38;;;;;;;30.52;14.45;;;;;;;;;;1484476;40;20025;-62
2021/07/19 04:48:39;;;;;;;34.53;15.30;;;;;;;;;;1484646;40;20032;-62
2021/07/19 04:49:42;;;;;;;32.33;15.40;;;;;;;;;;1484869;40;20025;-62
2021/07/19 04:50:44;;;;;;;29.38;15.25;;;;;;;;;;1485062;40;20036;-62
2021/07/19 04:51:48;;;;;;;32.70;15.65;;;;;;;;;;1485167;40;20365;-62
2021/07/19 04:52:49;;;;;;;29.63;15.07;;;;;;;;;;1485096;40;20047;-62
2021/07/19 04:53:52;;;;;;;29.90;14.10;;;;;;;;;;1485107;40;20048;-62
2021/07/19 04:54:55;;;;;;;29.13;14.32;;;;;;;;;;1485190;40;20025;-63
2021/07/19 04:55:59;;;;;;;30.13;15.20;;;;;;;;;;1484872;40;20266;-63
2021/07/19 04:57:02;;;;;;;29.25;13.82;;;;;;;;;;1485128;40;20025;-62
2021/07/19 04:58:06;;;;;;;32.72;14.27;;;;;;;;;;1485109;40;20049;-62
2021/07/19 04:59:08;;;;;;;27.00;13.88;;;;;;;;;;1484930;40;20032;-61
2021/07/19 05:00:12;;;;;;;29.10;14.52;;;;;;;;;;1485001;40;20035;-63
2021/07/19 05:01:16;;;;;;;36.47;16.35;;;;;;;;;;1484927;40;20394;-61
2021/07/19 05:02:20;;;;;;;27.05;14.93;;;;;;;;;;1485246;40;20029;-62
2021/07/19 05:03:23;;;;;;;31.30;14.65;;;;;;;;;;1485042;40;20025;-62
2021/07/19 05:04:26;;;;;;;28.45;14.93;;;;;;;;;;1485118;40;20036;-62
2021/07/19 05:05:29;;;;;;;25.98;14.45;;;;;;;;;;1485022;40;20020;-62
2021/07/19 05:06:31;;;;;;;27.63;14.23;;;;;;;;;;1485122;40;20347;-63
2021/07/19 05:07:34;;;;;;;28.98;14.80;;;;;;;;;;1485050;40;20025;-63
2021/07/19 05:08:38;;;;;;;25.95;14.38;;;;;;;;;;1484970;40;20147;-63
2021/07/19 05:09:40;;;;;;;26.73;13.52;;;;;;;;;;1485007;40;20028;-62
2021/07/19 05:10:43;;;;;;;27.92;13.35;;;;;;;;;;1485015;40;20021;-62
2021/07/19 05:11:44;;;;;;;28.33;14.50;;;;;;;;;;1484978;40;20024;-63
2021/07/19 05:12:49;;;;;;;26.55;14.77;;;;;;;;;;1484946;40;20021;-62
2021/07/19 05:13:51;;;;;;;31.15;15.43;;;;;;;;;;1485088;40;20021;-63
2021/07/19 05:14:53;;;;;;;30.00;15.50;;;;;;;;;;1485058;40;20397;-62
2021/07/19 05:15:54;;;;;;;28.70;14.98;;;;;;;;;;1484952;40;20032;-63
2021/07/19 05:16:57;;;;;;;29.15;14.73;;;;;;;;;;1484998;40;20351;-62
2021/07/19 05:17:58;;;;;;;30.95;14.50;;;;;;;;;;1484356;40;20025;-62
2021/07/19 05:19:01;;;;;;;30.15;15.25;;;;;;;;;;1484570;40;20095;-63
2021/07/19 05:20:02;;;;;;;29.15;14.20;;;;;;;;;;1484895;40;20021;-63
2021/07/19 05:21:04;;;;;;;32.25;15.45;;;;;;;;;;1485141;40;20055;-62
2021/07/19 05:22:08;;;;;;;26.75;14.95;;;;;;;;;;1484883;40;20036;-63
2021/07/19 05:23:12;;;;;;;29.38;15.30;;;;;;;;;;1485112;40;20404;-63
2021/07/19 05:24:13;;;;;;;26.20;14.20;;;;;;;;;;1485046;40;20020;-63
2021/07/19 05:25:16;;;;;;;31.88;15.98;;;;;;;;;;1485218;40;20021;-62
2021/07/19 05:26:16;;;;;;;27.38;15.50;;;;;;;;;;1484883;40;20392;-63
2021/07/19 05:27:18;;;;;;;30.73;15.60;;;;;;;;;;1485324;40;20031;-61
2021/07/19 05:28:20;;;;;;;28.33;15.90;;;;;;;;;;1485174;40;20020;-62
2021/07/19 05:29:21;;;;;;;25.83;14.50;;;;;;;;;;1485070;40;20021;-63
2021/07/19 05:30:22;;;;;;;26.85;13.90;;;;;;;;;;1485145;40;20392;-63
2021/07/19 05:31:24;;;;;;;28.60;15.15;;;;;;;;;;1484926;40;20037;-62
2021/07/19 05:32:25;;;;;;;26.35;15.32;;;;;;;;;;1484863;40;20025;-63
2021/07/19 05:33:27;;;;;;;25.58;15.35;;;;;;;;;;1485058;40;20031;-63
2021/07/19 05:34:28;;;;;;;23.77;15.20;;;;;;;;;;1484877;40;20028;-63
2021/07/19 05:35:30;;;;;;;26.85;15.93;;;;;;;;;;1484984;40;20075;-62
2021/07/19 05:36:32;;;;;;;24.60;14.98;;;;;;;;;;1485115;40;20029;-62
2021/07/19 05:37:33;;;;;;;26.50;16.00;;;;;;;;;;1485061;40;20029;-63
2021/07/19 05:38:36;;;;;;;27.55;16.77;;;;;;;;;;1485023;40;20037;-63
2021/07/19 05:39:37;;;;;;;27.60;16.58;;;;;;;;;;1484953;40;20408;-63
2021/07/19 05:40:40;;;;;;;29.23;16.90;;;;;;;;;;1484978;40;20036;-62
2021/07/19 05:41:41;;;;;;;28.27;15.60;;;;;;;;;;1484889;40;20032;-62
2021/07/19 05:42:43;;;;;;;28.63;16.80;;;;;;;;;;1484971;40;20028;-63
2021/07/19 05:43:44;;;;;;;33.42;16.48;;;;;;;;;;1484779;40;20411;-63
2021/07/19 05:44:46;;;;;;;29.30;15.85;;;;;;;;;;1484962;40;20040;-61
2021/07/19 05:45:47;;;;;;;29.13;16.50;;;;;;;;;;1484910;40;20021;-62
2021/07/19 05:46:49;;;;;;;31.40;16.88;;;;;;;;;;1485156;40;20025;-63
2021/07/19 05:47:49;;;;;;;30.40;16.58;;;;;;;;;;1484457;40;20057;-63
2021/07/19 05:48:51;;;;;;;29.73;16.45;;;;;;;;;;1484559;40;20032;-63
2021/07/19 05:49:52;;;;;;;32.03;16.65;;;;;;;;;;1484948;40;20293;-63
2021/07/19 05:50:54;;;;;;;30.10;17.05;;;;;;;;;;1484768;40;20024;-62
2021/07/19 05:51:55;;;;;;;30.42;16.85;;;;;;;;;;1484849;40;20045;-62
2021/07/19 05:52:57;;;;;;;36.00;18.50;;;;;;;;;;1485135;40;20029;-61
2021/07/19 05:54:01;;;;;;;33.60;17.40;;;;;;;;;;1484823;40;20032;-63
2021/07/19 05:55:04;;;;;;;31.42;17.05;;;;;;;;;;1484938;40;20388;-63
2021/07/19 05:56:05;;;;;;;30.60;17.02;;;;;;;;;;1484729;40;20032;-62
2021/07/19 05:57:08;;;;;;;28.40;16.52;;;;;;;;;;1484861;40;20021;-63
2021/07/19 05:58:09;;;;;;;31.10;17.95;;;;;;;;;;1484910;40;20037;-63
2021/07/19 05:59:11;;;;;;;34.88;16.85;;;;;;;;;;1484914;40;20021;-63
2021/07/19 06:00:15;;;;;;;27.27;17.17;;;;;;;;;;1484750;40;20025;-63
2021/07/19 06:01:17;;;;;;;27.65;17.27;;;;;;;;;;1485100;40;20048;-63
2021/07/19 06:02:18;;;;;;;35.58;17.73;;;;;;;;;;1484850;40;20028;-62
2021/07/19 06:03:20;;;;;;;31.33;17.55;;;;;;;;;;1484904;40;20052;-63
2021/07/19 06:04:21;;;;;;;29.00;17.95;;;;;;;;;;1484896;40;20025;-63
2021/07/19 06:05:23;;;;;;;31.85;17.52;;;;;;;;;;1485025;40;20039;-63